Raneson — LG4151 — position and weather

sailwx.info

Track history (hours):
 
Tides and Currents Weather Stations Pressure Air Temp Water Temp Dewpoint Dewpoint Depression Visibility Wind Speed Wind Dir Waves Ship Positions

Raneson

Last reported at 2017-Oct-19 07:00 UTC. Time now 2017-Oct-19 07:11 UTC.
Position N 68°25' E 016°47'.

Length 15 m.

Type: Tug. MMSI: 258296500.

Date/timePositionNaut miles runAvg speedWind from/ knotsBaromVisibWave heightAir tempDewpointWater temp
2017-Oct-19 07:00N 68°25' E 016°47'0 0.2
2017-Oct-19 06:28N 68°25' E 016°47'0 0.0
2017-Oct-19 05:58N 68°25' E 016°47'0 0.0
2017-Oct-19 05:28N 68°25' E 016°47'0 0.0
2017-Oct-19 04:58N 68°25' E 016°47'0 0.0
2017-Oct-19 04:28N 68°25' E 016°47'0 0.0
2017-Oct-19 03:58N 68°25' E 016°47'0 0.0
2017-Oct-19 03:28N 68°25' E 016°47'0 0.0
2017-Oct-19 02:58N 68°25' E 016°47'0 0.0
2017-Oct-19 02:28N 68°25' E 016°47'0 0.0
2017-Oct-19 01:58N 68°25' E 016°47'0 0.0
2017-Oct-19 01:28N 68°25' E 016°47'0 0.0
2017-Oct-19 00:58N 68°25' E 016°47'0 0.0
2017-Oct-19 00:28N 68°25' E 016°47'0 0.0
2017-Oct-18 23:58N 68°25' E 016°47'0 0.0
2017-Oct-18 23:28N 68°25' E 016°47'0 0.0
2017-Oct-18 22:58N 68°25' E 016°47'0 0.0
2017-Oct-18 22:28N 68°25' E 016°47'0 0.0
2017-Oct-18 21:58N 68°25' E 016°47'0 0.0
2017-Oct-18 21:28N 68°25' E 016°47'0 0.0
2017-Oct-18 20:58N 68°25' E 016°47'2 4.3
2017-Oct-18 20:30N 68°26' E 016°42'510.1
2017-Oct-18 20:00N 68°25' E 016°28'4 8.6
2017-Oct-18 19:30N 68°23' E 016°18'4 8.6
2017-Oct-18 18:59N 68°22' E 016°06'4 8.3
2017-Oct-18 18:30N 68°20' E 015°57'4 8.3
2017-Oct-18 17:59N 68°17' E 015°48'4 8.0
2017-Oct-18 17:30N 68°14' E 015°40'4 8.0
2017-Oct-18 17:00N 68°12' E 015°32'4 7.9
2017-Oct-18 16:30N 68°09' E 015°24'4 7.8
2017-Oct-18 15:59N 68°06' E 015°18'4 8.0
2017-Oct-18 15:30N 68°02' E 015°12'4 7.9
2017-Oct-18 15:00N 67°59' E 015°10'5 4.4
2017-Oct-18 13:59N 67°56' E 015°19'3 6.8
2017-Oct-18 13:30N 67°54' E 015°11'0 0.0
2017-Oct-18 13:00N 67°54' E 015°11'0 0.0
2017-Oct-18 12:30N 67°54' E 015°11'0 0.0
2017-Oct-18 11:57N 67°54' E 015°11'0 0.4
2017-Oct-18 11:30N 67°54' E 015°11'4 7.5
2017-Oct-18 11:00N 67°55' E 015°01'4 7.8
2017-Oct-18 10:29N 67°53' E 014°51'3 6.8
2017-Oct-18 09:58N 67°50' E 014°47'3 6.8
2017-Oct-18 09:30N 67°47' E 014°44'3 6.8
2017-Oct-18 09:00N 67°44' E 014°46'0 0.4
2017-Oct-18 08:29N 67°44' E 014°46'0 0.0
2017-Oct-18 07:59N 67°44' E 014°46'0 0.4
2017-Oct-18 07:29N 67°44' E 014°46'4 7.9
2017-Oct-18 07:00N 67°40' E 014°44'4 8.4
2017-Oct-18 06:30N 67°39' E 014°55'4 7.4
2017-Oct-18 05:59N 67°41' E 015°03'4 8.7
2017-Oct-18 05:28N 67°44' E 015°13'3 0.2
2017-Oct-17 14:32N 67°46' E 015°16'1 8.9
2017-Oct-17 14:27N 67°46' E 015°18'5 8.9
2017-Oct-17 13:56N 67°46' E 015°31'1 1.4
2017-Oct-17 12:54N 67°46' E 015°34'1 2.2
2017-Oct-17 12:16N 67°46' E 015°31'1 2.4
2017-Oct-17 11:56N 67°46' E 015°29'3 1.2
2017-Oct-17 09:47N 67°44' E 015°26'2 2.9
2017-Oct-17 08:56N 67°45' E 015°20'2 3.2
2017-Oct-17 08:22N 67°44' E 015°16'2 3.3
2017-Oct-17 07:46N 67°42' E 015°13'1 3.3
2017-Oct-17 07:27N 67°41' E 015°11'2 3.2
2017-Oct-17 06:59N 67°40' E 015°09'0 0.2
2017-Oct-17 05:51N 67°40' E 015°09'4 8.5
2017-Oct-17 05:26N 67°44' E 015°13'3 0.3
2017-Oct-16 21:29N 67°46' E 015°15'0 0.1
2017-Oct-16 14:45N 67°46' E 015°16'3 1.9
2017-Oct-16 13:13N 67°44' E 015°22'4 7.0
2017-Oct-16 12:38N 67°42' E 015°13'2 8.7
2017-Oct-16 12:24N 67°41' E 015°10'1 0.9
2017-Oct-16 10:50N 67°39' E 015°07'0 0.0
2017-Oct-16 09:07N 67°39' E 015°07'0 0.3
2017-Oct-16 08:56N 67°39' E 015°07'0 0.3
2017-Oct-16 08:26N 67°39' E 015°07'0 0.1
2017-Oct-16 07:25N 67°39' E 015°07'0 0.0
2017-Oct-16 06:13N 67°39' E 015°07'1 2.2
2017-Oct-16 05:52N 67°40' E 015°09'4 8.1
2017-Oct-16 05:20N 67°44' E 015°14'2 3.4
2017-Oct-16 04:41N 67°46' E 015°15'0 0.0
2017-Oct-16 04:11N 67°46' E 015°15'0 0.0
2017-Oct-16 00:41N 67°46' E 015°15'0 0.0
2017-Oct-15 23:47N 67°46' E 015°15'0 0.0
2017-Oct-15 23:17N 67°46' E 015°15'0 0.0
2017-Oct-15 22:29N 67°46' E 015°15'0 0.0
2017-Oct-15 21:44N 67°46' E 015°15'0 0.0
2017-Oct-15 21:29N 67°46' E 015°15'0 0.0
2017-Oct-15 19:29N 67°46' E 015°15'0 0.0
2017-Oct-15 18:59N 67°46' E 015°15'0 0.0
2017-Oct-15 17:17N 67°46' E 015°15'7 6.7
2017-Oct-15 16:12N 67°39' E 015°07'0 0.1
2017-Oct-15 16:00N 67°39' E 015°07'0 0.1
2017-Oct-15 14:42N 67°39' E 015°07'3 4.1
2017-Oct-15 13:55N 67°42' E 015°12'3 8.2
2017-Oct-15 13:31N 67°45' E 015°18'3 1.8
2017-Oct-15 11:36N 67°44' E 015°27'0 0.0
2017-Oct-15 07:33N 67°44' E 015°27'0 0.0
2017-Oct-15 07:30N 67°44' E 015°27'0 0.0
2017-Oct-15 07:00N 67°44' E 015°27'4 0.2
2017-Oct-14 13:46N 67°45' E 015°18'1 4.4
2017-Oct-14 13:25N 67°46' E 015°15'6 2.6
2017-Oct-14 11:13N 67°40' E 015°09'1 4.5
2017-Oct-14 10:55N 67°39' E 015°07'0 0.0
2017-Oct-14 09:40N 67°39' E 015°07'0 0.5
2017-Oct-14 09:29N 67°39' E 015°07'3 6.9
2017-Oct-14 09:00N 67°38' E 014°59'4 7.1
2017-Oct-14 08:30N 67°39' E 014°50'3 5.5
2017-Oct-14 08:00N 67°41' E 014°44'4 7.7
2017-Oct-14 07:30N 67°44' E 014°42'4 8.0
2017-Oct-14 07:00N 67°48' E 014°44'3 6.9
2017-Oct-14 06:30N 67°51' E 014°48'3 5.2
2017-Oct-14 06:00N 67°53' E 014°52'4 8.2
2017-Oct-14 05:30N 67°55' E 015°03'3 6.7
2017-Oct-14 04:59N 67°54' E 015°12'0 0.4
2017-Oct-14 04:28N 67°54' E 015°11'0 0.0
2017-Oct-14 03:58N 67°54' E 015°11'0 0.0
2017-Oct-14 03:28N 67°54' E 015°11'0 0.0
2017-Oct-14 02:58N 67°54' E 015°11'0 0.0
2017-Oct-14 02:28N 67°54' E 015°11'0 0.0
2017-Oct-14 01:58N 67°54' E 015°11'0 0.0
2017-Oct-14 01:28N 67°54' E 015°11'0 0.0
2017-Oct-14 00:58N 67°54' E 015°11'0 0.0
2017-Oct-14 00:28N 67°54' E 015°11'0 0.0
2017-Oct-13 23:58N 67°54' E 015°11'0 0.0
2017-Oct-13 23:28N 67°54' E 015°11'0 0.0
2017-Oct-13 22:58N 67°54' E 015°11'0 0.0
2017-Oct-13 22:28N 67°54' E 015°11'0 0.0
2017-Oct-13 21:58N 67°54' E 015°11'0 0.0
2017-Oct-13 21:28N 67°54' E 015°11'0 0.0
2017-Oct-13 20:58N 67°54' E 015°11'0 0.0
2017-Oct-13 20:28N 67°54' E 015°11'0 0.0
2017-Oct-13 19:58N 67°54' E 015°11'0 0.0
2017-Oct-13 19:28N 67°54' E 015°11'0 0.0
2017-Oct-13 18:58N 67°54' E 015°11'0 0.0
2017-Oct-13 18:28N 67°54' E 015°11'0 0.0
2017-Oct-13 17:58N 67°54' E 015°11'0 0.0
2017-Oct-13 17:28N 67°54' E 015°11'0 0.0
2017-Oct-13 16:58N 67°54' E 015°11'0 0.0
2017-Oct-13 16:29N 67°54' E 015°11'0 0.0
2017-Oct-13 15:58N 67°54' E 015°11'3 6.9
2017-Oct-13 15:30N 67°56' E 015°19'4 8.6
2017-Oct-13 14:59N 68°00' E 015°17'1 1.2
2017-Oct-13 14:29N 68°00' E 015°16'0 0.0
2017-Oct-13 13:59N 68°00' E 015°16'0 0.0
2017-Oct-13 13:26N 68°00' E 015°16'0 0.0
2017-Oct-13 12:53N 68°00' E 015°16'0 0.0
2017-Oct-13 12:29N 68°00' E 015°16'0 0.0
2017-Oct-13 11:59N 68°00' E 015°16'0 0.0
2017-Oct-13 11:30N 68°00' E 015°16'0 0.0
2017-Oct-13 11:00N 68°00' E 015°16'0 0.0
2017-Oct-13 10:30N 68°00' E 015°16'0 0.0
2017-Oct-13 10:00N 68°00' E 015°16'4 7.2
2017-Oct-13 09:29N 67°58' E 015°22'4 8.9
2017-Oct-13 09:00N 67°58' E 015°33'5 9.2
2017-Oct-13 08:30N 67°58' E 015°45'1 0.1
2017-Oct-12 16:03N 67°58' E 015°48'0 0.0
2017-Oct-12 13:22N 67°58' E 015°49'0 0.1
2017-Oct-12 12:22N 67°58' E 015°49'1 0.3
2017-Oct-12 10:39N 67°58' E 015°48'1 9.0
2017-Oct-12 10:30N 67°58' E 015°44'4 9.1
2017-Oct-12 10:00N 67°57' E 015°32'4 8.1
2017-Oct-12 09:29N 67°58' E 015°21'3 6.3
2017-Oct-12 08:59N 68°00' E 015°16'4 8.1
2017-Oct-12 08:30N 67°57' E 015°20'4 8.7
2017-Oct-12 08:00N 67°54' E 015°12'0 0.3
2017-Oct-12 07:29N 67°54' E 015°11'0 0.0
2017-Oct-12 07:00N 67°54' E 015°11'0 0.0
2017-Oct-12 06:31N 67°54' E 015°11'1 1.5
2017-Oct-12 06:00N 67°54' E 015°09'0 0.0
2017-Oct-12 05:29N 67°54' E 015°09'1 1.5
2017-Oct-12 04:58N 67°54' E 015°11'0 0.0
2017-Oct-12 04:28N 67°54' E 015°11'0 0.0
2017-Oct-12 03:58N 67°54' E 015°11'0 0.0
2017-Oct-12 03:28N 67°54' E 015°11'0 0.0
2017-Oct-12 02:58N 67°54' E 015°11'0 0.0
2017-Oct-12 02:28N 67°54' E 015°11'0 0.0
2017-Oct-12 01:58N 67°54' E 015°11'0 0.0
2017-Oct-12 01:28N 67°54' E 015°11'0 0.0
2017-Oct-12 00:58N 67°54' E 015°11'0 0.0
2017-Oct-12 00:28N 67°54' E 015°11'0 0.0
2017-Oct-11 23:58N 67°54' E 015°11'0 0.0
2017-Oct-11 23:28N 67°54' E 015°11'0 0.0
2017-Oct-11 22:55N 67°54' E 015°11'0 0.0
2017-Oct-11 22:28N 67°54' E 015°11'0 0.0
2017-Oct-11 21:58N 67°54' E 015°11'0 0.0
2017-Oct-11 21:28N 67°54' E 015°11'0 0.0
2017-Oct-11 20:55N 67°54' E 015°11'0 0.0
2017-Oct-11 20:28N 67°54' E 015°11'0 0.0
2017-Oct-11 19:58N 67°54' E 015°11'0 0.0
2017-Oct-11 19:28N 67°54' E 015°11'0 0.0
2017-Oct-11 18:58N 67°54' E 015°11'0 0.0
2017-Oct-11 18:28N 67°54' E 015°11'0 0.0
2017-Oct-11 17:58N 67°54' E 015°11'0 0.0
2017-Oct-11 17:28N 67°54' E 015°11'0 0.0
2017-Oct-11 16:58N 67°54' E 015°11'14 0.6
2017-Oct-10 16:14N 67°40' E 015°08'2 8.6
2017-Oct-10 16:00N 67°41' E 015°03'0 0.5
2017-Oct-10 15:26N 67°41' E 015°02'2 3.9
2017-Oct-10 14:52N 67°40' E 015°08'1 0.4
2017-Oct-10 12:22N 67°39' E 015°07'1 1.5
2017-Oct-10 11:38N 67°40' E 015°09'1 8.6
2017-Oct-10 11:28N 67°41' E 015°11'4 8.6
2017-Oct-10 11:00N 67°45' E 015°15'1 1.8
2017-Oct-10 10:31N 67°46' E 015°15'0 0.0
2017-Oct-10 09:52N 67°46' E 015°15'0 0.0
2017-Oct-10 09:28N 67°46' E 015°15'0 0.0
2017-Oct-10 08:56N 67°46' E 015°15'0 0.0
2017-Oct-10 06:43N 67°46' E 015°15'0 0.0
2017-Oct-10 03:47N 67°46' E 015°15'0 0.0
2017-Oct-10 03:29N 67°46' E 015°15'0 0.0
2017-Oct-10 02:53N 67°46' E 015°15'0 0.0
2017-Oct-10 01:53N 67°46' E 015°15'0 0.0
2017-Oct-09 19:50N 67°46' E 015°15'0 0.0
2017-Oct-09 19:26N 67°46' E 015°15'0 0.0
2017-Oct-09 13:38N 67°46' E 015°15'4 8.3
2017-Oct-09 13:06N 67°42' E 015°09'1 9.4
2017-Oct-09 12:59N 67°42' E 015°06'2 3.1
2017-Oct-09 12:29N 67°41' E 015°02'3 0.7
2017-Oct-09 08:46N 67°39' E 015°07'1 0.8
2017-Oct-09 07:35N 67°40' E 015°08'1 8.9
2017-Oct-09 07:27N 67°41' E 015°05'  
Track history (hours):
 
Tides and Currents Weather Stations Pressure Air Temp Water Temp Dewpoint Dewpoint Depression Visibility Wind Speed Wind Dir Waves Ship Positions

Raneson

Last reported at 2017-Oct-19 07:00 UTC. Time now 2017-Oct-19 07:11 UTC.
Position N 68°25' E 016°47'.

Length 15 m.

Type: Tug. MMSI: 258296500.

Date/timePositionNaut miles runAvg speedWind from/ knotsBaromVisibWave heightAir tempDewpointWater temp
2017-Oct-19 07:00N 68°25' E 016°47'0 0.2
2017-Oct-19 06:28N 68°25' E 016°47'0 0.0
2017-Oct-19 05:58N 68°25' E 016°47'0 0.0
2017-Oct-19 05:28N 68°25' E 016°47'0 0.0
2017-Oct-19 04:58N 68°25' E 016°47'0 0.0
2017-Oct-19 04:28N 68°25' E 016°47'0 0.0
2017-Oct-19 03:58N 68°25' E 016°47'0 0.0
2017-Oct-19 03:28N 68°25' E 016°47'0 0.0
2017-Oct-19 02:58N 68°25' E 016°47'0 0.0
2017-Oct-19 02:28N 68°25' E 016°47'0 0.0
2017-Oct-19 01:58N 68°25' E 016°47'0 0.0
2017-Oct-19 01:28N 68°25' E 016°47'0 0.0
2017-Oct-19 00:58N 68°25' E 016°47'0 0.0
2017-Oct-19 00:28N 68°25' E 016°47'0 0.0
2017-Oct-18 23:58N 68°25' E 016°47'0 0.0
2017-Oct-18 23:28N 68°25' E 016°47'0 0.0
2017-Oct-18 22:58N 68°25' E 016°47'0 0.0
2017-Oct-18 22:28N 68°25' E 016°47'0 0.0
2017-Oct-18 21:58N 68°25' E 016°47'0 0.0
2017-Oct-18 21:28N 68°25' E 016°47'0 0.0
2017-Oct-18 20:58N 68°25' E 016°47'2 4.3
2017-Oct-18 20:30N 68°26' E 016°42'510.1
2017-Oct-18 20:00N 68°25' E 016°28'4 8.6
2017-Oct-18 19:30N 68°23' E 016°18'4 8.6
2017-Oct-18 18:59N 68°22' E 016°06'4 8.3
2017-Oct-18 18:30N 68°20' E 015°57'4 8.3
2017-Oct-18 17:59N 68°17' E 015°48'4 8.0
2017-Oct-18 17:30N 68°14' E 015°40'4 8.0
2017-Oct-18 17:00N 68°12' E 015°32'4 7.9
2017-Oct-18 16:30N 68°09' E 015°24'4 7.8
2017-Oct-18 15:59N 68°06' E 015°18'4 8.0
2017-Oct-18 15:30N 68°02' E 015°12'4 7.9
2017-Oct-18 15:00N 67°59' E 015°10'5 4.4
2017-Oct-18 13:59N 67°56' E 015°19'3 6.8
2017-Oct-18 13:30N 67°54' E 015°11'0 0.0
2017-Oct-18 13:00N 67°54' E 015°11'0 0.0
2017-Oct-18 12:30N 67°54' E 015°11'0 0.0
2017-Oct-18 11:57N 67°54' E 015°11'0 0.4
2017-Oct-18 11:30N 67°54' E 015°11'4 7.5
2017-Oct-18 11:00N 67°55' E 015°01'4 7.8
2017-Oct-18 10:29N 67°53' E 014°51'3 6.8
2017-Oct-18 09:58N 67°50' E 014°47'3 6.8
2017-Oct-18 09:30N 67°47' E 014°44'3 6.8
2017-Oct-18 09:00N 67°44' E 014°46'0 0.4
2017-Oct-18 08:29N 67°44' E 014°46'0 0.0
2017-Oct-18 07:59N 67°44' E 014°46'0 0.4
2017-Oct-18 07:29N 67°44' E 014°46'4 7.9
2017-Oct-18 07:00N 67°40' E 014°44'4 8.4
2017-Oct-18 06:30N 67°39' E 014°55'4 7.4
2017-Oct-18 05:59N 67°41' E 015°03'4 8.7
2017-Oct-18 05:28N 67°44' E 015°13'3 0.2
2017-Oct-17 14:32N 67°46' E 015°16'1 8.9
2017-Oct-17 14:27N 67°46' E 015°18'5 8.9
2017-Oct-17 13:56N 67°46' E 015°31'1 1.4
2017-Oct-17 12:54N 67°46' E 015°34'1 2.2
2017-Oct-17 12:16N 67°46' E 015°31'1 2.4
2017-Oct-17 11:56N 67°46' E 015°29'3 1.2
2017-Oct-17 09:47N 67°44' E 015°26'2 2.9
2017-Oct-17 08:56N 67°45' E 015°20'2 3.2
2017-Oct-17 08:22N 67°44' E 015°16'2 3.3
2017-Oct-17 07:46N 67°42' E 015°13'1 3.3
2017-Oct-17 07:27N 67°41' E 015°11'2 3.2
2017-Oct-17 06:59N 67°40' E 015°09'0 0.2
2017-Oct-17 05:51N 67°40' E 015°09'4 8.5
2017-Oct-17 05:26N 67°44' E 015°13'3 0.3
2017-Oct-16 21:29N 67°46' E 015°15'0 0.1
2017-Oct-16 14:45N 67°46' E 015°16'3 1.9
2017-Oct-16 13:13N 67°44' E 015°22'4 7.0
2017-Oct-16 12:38N 67°42' E 015°13'2 8.7
2017-Oct-16 12:24N 67°41' E 015°10'1 0.9
2017-Oct-16 10:50N 67°39' E 015°07'0 0.0
2017-Oct-16 09:07N 67°39' E 015°07'0 0.3
2017-Oct-16 08:56N 67°39' E 015°07'0 0.3
2017-Oct-16 08:26N 67°39' E 015°07'0 0.1
2017-Oct-16 07:25N 67°39' E 015°07'0 0.0
2017-Oct-16 06:13N 67°39' E 015°07'1 2.2
2017-Oct-16 05:52N 67°40' E 015°09'4 8.1
2017-Oct-16 05:20N 67°44' E 015°14'2 3.4
2017-Oct-16 04:41N 67°46' E 015°15'0 0.0
2017-Oct-16 04:11N 67°46' E 015°15'0 0.0
2017-Oct-16 00:41N 67°46' E 015°15'0 0.0
2017-Oct-15 23:47N 67°46' E 015°15'0 0.0
2017-Oct-15 23:17N 67°46' E 015°15'0 0.0
2017-Oct-15 22:29N 67°46' E 015°15'0 0.0
2017-Oct-15 21:44N 67°46' E 015°15'0 0.0
2017-Oct-15 21:29N 67°46' E 015°15'0 0.0
2017-Oct-15 19:29N 67°46' E 015°15'0 0.0
2017-Oct-15 18:59N 67°46' E 015°15'0 0.0
2017-Oct-15 17:17N 67°46' E 015°15'7 6.7
2017-Oct-15 16:12N 67°39' E 015°07'0 0.1
2017-Oct-15 16:00N 67°39' E 015°07'0 0.1
2017-Oct-15 14:42N 67°39' E 015°07'3 4.1
2017-Oct-15 13:55N 67°42' E 015°12'3 8.2
2017-Oct-15 13:31N 67°45' E 015°18'3 1.8
2017-Oct-15 11:36N 67°44' E 015°27'0 0.0
2017-Oct-15 07:33N 67°44' E 015°27'0 0.0
2017-Oct-15 07:30N 67°44' E 015°27'0 0.0
2017-Oct-15 07:00N 67°44' E 015°27'4 0.2
2017-Oct-14 13:46N 67°45' E 015°18'1 4.4
2017-Oct-14 13:25N 67°46' E 015°15'6 2.6
2017-Oct-14 11:13N 67°40' E 015°09'1 4.5
2017-Oct-14 10:55N 67°39' E 015°07'0 0.0
2017-Oct-14 09:40N 67°39' E 015°07'0 0.5
2017-Oct-14 09:29N 67°39' E 015°07'3 6.9
2017-Oct-14 09:00N 67°38' E 014°59'4 7.1
2017-Oct-14 08:30N 67°39' E 014°50'3 5.5
2017-Oct-14 08:00N 67°41' E 014°44'4 7.7
2017-Oct-14 07:30N 67°44' E 014°42'4 8.0
2017-Oct-14 07:00N 67°48' E 014°44'3 6.9
2017-Oct-14 06:30N 67°51' E 014°48'3 5.2
2017-Oct-14 06:00N 67°53' E 014°52'4 8.2
2017-Oct-14 05:30N 67°55' E 015°03'3 6.7
2017-Oct-14 04:59N 67°54' E 015°12'0 0.4
2017-Oct-14 04:28N 67°54' E 015°11'0 0.0
2017-Oct-14 03:58N 67°54' E 015°11'0 0.0
2017-Oct-14 03:28N 67°54' E 015°11'0 0.0
2017-Oct-14 02:58N 67°54' E 015°11'0 0.0
2017-Oct-14 02:28N 67°54' E 015°11'0 0.0
2017-Oct-14 01:58N 67°54' E 015°11'0 0.0
2017-Oct-14 01:28N 67°54' E 015°11'0 0.0
2017-Oct-14 00:58N 67°54' E 015°11'0 0.0
2017-Oct-14 00:28N 67°54' E 015°11'0 0.0
2017-Oct-13 23:58N 67°54' E 015°11'0 0.0
2017-Oct-13 23:28N 67°54' E 015°11'0 0.0
2017-Oct-13 22:58N 67°54' E 015°11'0 0.0
2017-Oct-13 22:28N 67°54' E 015°11'0 0.0
2017-Oct-13 21:58N 67°54' E 015°11'0 0.0
2017-Oct-13 21:28N 67°54' E 015°11'0 0.0
2017-Oct-13 20:58N 67°54' E 015°11'0 0.0
2017-Oct-13 20:28N 67°54' E 015°11'0 0.0
2017-Oct-13 19:58N 67°54' E 015°11'0 0.0
2017-Oct-13 19:28N 67°54' E 015°11'0 0.0
2017-Oct-13 18:58N 67°54' E 015°11'0 0.0
2017-Oct-13 18:28N 67°54' E 015°11'0 0.0
2017-Oct-13 17:58N 67°54' E 015°11'0 0.0
2017-Oct-13 17:28N 67°54' E 015°11'0 0.0
2017-Oct-13 16:58N 67°54' E 015°11'0 0.0
2017-Oct-13 16:29N 67°54' E 015°11'0 0.0
2017-Oct-13 15:58N 67°54' E 015°11'3 6.9
2017-Oct-13 15:30N 67°56' E 015°19'4 8.6
2017-Oct-13 14:59N 68°00' E 015°17'1 1.2
2017-Oct-13 14:29N 68°00' E 015°16'0 0.0
2017-Oct-13 13:59N 68°00' E 015°16'0 0.0
2017-Oct-13 13:26N 68°00' E 015°16'0 0.0
2017-Oct-13 12:53N 68°00' E 015°16'0 0.0
2017-Oct-13 12:29N 68°00' E 015°16'0 0.0
2017-Oct-13 11:59N 68°00' E 015°16'0 0.0
2017-Oct-13 11:30N 68°00' E 015°16'0 0.0
2017-Oct-13 11:00N 68°00' E 015°16'0 0.0
2017-Oct-13 10:30N 68°00' E 015°16'0 0.0
2017-Oct-13 10:00N 68°00' E 015°16'4 7.2
2017-Oct-13 09:29N 67°58' E 015°22'4 8.9
2017-Oct-13 09:00N 67°58' E 015°33'5 9.2
2017-Oct-13 08:30N 67°58' E 015°45'1 0.1
2017-Oct-12 16:03N 67°58' E 015°48'0 0.0
2017-Oct-12 13:22N 67°58' E 015°49'0 0.1
2017-Oct-12 12:22N 67°58' E 015°49'1 0.3
2017-Oct-12 10:39N 67°58' E 015°48'1 9.0
2017-Oct-12 10:30N 67°58' E 015°44'4 9.1
2017-Oct-12 10:00N 67°57' E 015°32'4 8.1
2017-Oct-12 09:29N 67°58' E 015°21'3 6.3
2017-Oct-12 08:59N 68°00' E 015°16'4 8.1
2017-Oct-12 08:30N 67°57' E 015°20'4 8.7
2017-Oct-12 08:00N 67°54' E 015°12'0 0.3
2017-Oct-12 07:29N 67°54' E 015°11'0 0.0
2017-Oct-12 07:00N 67°54' E 015°11'0 0.0
2017-Oct-12 06:31N 67°54' E 015°11'1 1.5
2017-Oct-12 06:00N 67°54' E 015°09'0 0.0
2017-Oct-12 05:29N 67°54' E 015°09'1 1.5
2017-Oct-12 04:58N 67°54' E 015°11'0 0.0
2017-Oct-12 04:28N 67°54' E 015°11'0 0.0
2017-Oct-12 03:58N 67°54' E 015°11'0 0.0
2017-Oct-12 03:28N 67°54' E 015°11'0 0.0
2017-Oct-12 02:58N 67°54' E 015°11'0 0.0
2017-Oct-12 02:28N 67°54' E 015°11'0 0.0
2017-Oct-12 01:58N 67°54' E 015°11'0 0.0
2017-Oct-12 01:28N 67°54' E 015°11'0 0.0
2017-Oct-12 00:58N 67°54' E 015°11'0 0.0
2017-Oct-12 00:28N 67°54' E 015°11'0 0.0
2017-Oct-11 23:58N 67°54' E 015°11'0 0.0
2017-Oct-11 23:28N 67°54' E 015°11'0 0.0
2017-Oct-11 22:55N 67°54' E 015°11'0 0.0
2017-Oct-11 22:28N 67°54' E 015°11'0 0.0
2017-Oct-11 21:58N 67°54' E 015°11'0 0.0
2017-Oct-11 21:28N 67°54' E 015°11'0 0.0
2017-Oct-11 20:55N 67°54' E 015°11'0 0.0
2017-Oct-11 20:28N 67°54' E 015°11'0 0.0
2017-Oct-11 19:58N 67°54' E 015°11'0 0.0
2017-Oct-11 19:28N 67°54' E 015°11'0 0.0
2017-Oct-11 18:58N 67°54' E 015°11'0 0.0
2017-Oct-11 18:28N 67°54' E 015°11'0 0.0
2017-Oct-11 17:58N 67°54' E 015°11'0 0.0
2017-Oct-11 17:28N 67°54' E 015°11'0 0.0
2017-Oct-11 16:58N 67°54' E 015°11'14 0.6
2017-Oct-10 16:14N 67°40' E 015°08'2 8.6
2017-Oct-10 16:00N 67°41' E 015°03'0 0.5
2017-Oct-10 15:26N 67°41' E 015°02'2 3.9
2017-Oct-10 14:52N 67°40' E 015°08'1 0.4
2017-Oct-10 12:22N 67°39' E 015°07'1 1.5
2017-Oct-10 11:38N 67°40' E 015°09'1 8.6
2017-Oct-10 11:28N 67°41' E 015°11'4 8.6
2017-Oct-10 11:00N 67°45' E 015°15'1 1.8
2017-Oct-10 10:31N 67°46' E 015°15'0 0.0
2017-Oct-10 09:52N 67°46' E 015°15'0 0.0
2017-Oct-10 09:28N 67°46' E 015°15'0 0.0
2017-Oct-10 08:56N 67°46' E 015°15'0 0.0
2017-Oct-10 06:43N 67°46' E 015°15'0 0.0
2017-Oct-10 03:47N 67°46' E 015°15'0 0.0
2017-Oct-10 03:29N 67°46' E 015°15'0 0.0
2017-Oct-10 02:53N 67°46' E 015°15'0 0.0
2017-Oct-10 01:53N 67°46' E 015°15'0 0.0
2017-Oct-09 19:50N 67°46' E 015°15'0 0.0
2017-Oct-09 19:26N 67°46' E 015°15'0 0.0
2017-Oct-09 13:38N 67°46' E 015°15'4 8.3
2017-Oct-09 13:06N 67°42' E 015°09'1 9.4
2017-Oct-09 12:59N 67°42' E 015°06'2 3.1
2017-Oct-09 12:29N 67°41' E 015°02'3 0.7
2017-Oct-09 08:46N 67°39' E 015°07'1 0.8
2017-Oct-09 07:35N 67°40' E 015°08'1 8.9
2017-Oct-09 07:27N 67°41' E 015°05'  

Dump ship's entire track history